sensor_id;sensor_type;location;lat;lon;timestamp;P1;durP1;ratioP1;P2;durP2;ratioP2
5125;SDS011;63008;53.112;8.896;2023-04-06T00:01:41;10.30;;;9.23;;
5125;SDS011;63008;53.112;8.896;2023-04-06T00:03:42;10.70;;;9.67;;
5125;SDS011;63008;53.112;8.896;2023-04-06T00:05:43;14.00;;;9.87;;
5125;SDS011;63008;53.112;8.896;2023-04-06T00:07:44;10.77;;;9.70;;
5125;SDS011;63008;53.112;8.896;2023-04-06T00:09:45;14.10;;;11.77;;
5125;SDS011;63008;53.112;8.896;2023-04-06T00:11:46;13.30;;;10.83;;
5125;SDS011;63008;53.112;8.896;2023-04-06T00:13:47;16.53;;;10.17;;
5125;SDS011;63008;53.112;8.896;2023-04-06T00:15:49;12.43;;;11.10;;
5125;SDS011;63008;53.112;8.896;2023-04-06T00:17:50;11.83;;;9.90;;
5125;SDS011;63008;53.112;8.896;2023-04-06T00:19:51;14.73;;;10.63;;
5125;SDS011;63008;53.112;8.896;2023-04-06T00:21:52;11.63;;;10.43;;
5125;SDS011;63008;53.112;8.896;2023-04-06T00:23:53;10.60;;;9.50;;
5125;SDS011;63008;53.112;8.896;2023-04-06T00:25:54;12.40;;;11.00;;
5125;SDS011;63008;53.112;8.896;2023-04-06T00:27:56;13.00;;;10.97;;
5125;SDS011;63008;53.112;8.896;2023-04-06T00:29:57;13.07;;;11.27;;
5125;SDS011;63008;53.112;8.896;2023-04-06T00:31:58;16.87;;;10.50;;
5125;SDS011;63008;53.112;8.896;2023-04-06T00:33:59;11.70;;;10.23;;
5125;SDS011;63008;53.112;8.896;2023-04-06T00:36:00;14.30;;;11.13;;
5125;SDS011;63008;53.112;8.896;2023-04-06T00:38:01;12.60;;;11.27;;
5125;SDS011;63008;53.112;8.896;2023-04-06T00:40:02;15.83;;;11.73;;
5125;SDS011;63008;53.112;8.896;2023-04-06T00:42:07;13.93;;;12.43;;
5125;SDS011;63008;53.112;8.896;2023-04-06T00:44:13;11.27;;;10.03;;
5125;SDS011;63008;53.112;8.896;2023-04-06T00:46:14;15.07;;;11.80;;
5125;SDS011;63008;53.112;8.896;2023-04-06T00:48:14;12.43;;;10.70;;
5125;SDS011;63008;53.112;8.896;2023-04-06T00:50:16;13.20;;;11.70;;
5125;SDS011;63008;53.112;8.896;2023-04-06T00:52:18;14.03;;;11.60;;
5125;SDS011;63008;53.112;8.896;2023-04-06T00:54:19;13.47;;;12.07;;
5125;SDS011;63008;53.112;8.896;2023-04-06T00:56:20;14.30;;;11.80;;
5125;SDS011;63008;53.112;8.896;2023-04-06T00:58:21;14.37;;;11.87;;
5125;SDS011;63008;53.112;8.896;2023-04-06T01:00:22;12.03;;;10.80;;
5125;SDS011;63008;53.112;8.896;2023-04-06T01:02:24;13.57;;;12.13;;
5125;SDS011;63008;53.112;8.896;2023-04-06T01:04:26;12.00;;;10.80;;
5125;SDS011;63008;53.112;8.896;2023-04-06T01:06:28;13.23;;;11.80;;
5125;SDS011;63008;53.112;8.896;2023-04-06T01:08:29;13.57;;;12.17;;
5125;SDS011;63008;53.112;8.896;2023-04-06T01:10:30;13.87;;;11.27;;
5125;SDS011;63008;53.112;8.896;2023-04-06T01:12:31;13.93;;;12.50;;
5125;SDS011;63008;53.112;8.896;2023-04-06T01:14:32;14.63;;;11.73;;
5125;SDS011;63008;53.112;8.896;2023-04-06T01:16:34;13.20;;;11.83;;
5125;SDS011;63008;53.112;8.896;2023-04-06T01:18:35;14.53;;;12.63;;
5125;SDS011;63008;53.112;8.896;2023-04-06T01:20:37;14.20;;;12.37;;
5125;SDS011;63008;53.112;8.896;2023-04-06T01:22:39;15.37;;;11.83;;
5125;SDS011;63008;53.112;8.896;2023-04-06T01:24:40;13.07;;;11.77;;
5125;SDS011;63008;53.112;8.896;2023-04-06T01:26:41;15.93;;;13.00;;
5125;SDS011;63008;53.112;8.896;2023-04-06T01:28:43;13.73;;;12.40;;
5125;SDS011;63008;53.112;8.896;2023-04-06T01:30:45;19.73;;;12.57;;
5125;SDS011;63008;53.112;8.896;2023-04-06T01:32:46;13.20;;;11.80;;
5125;SDS011;63008;53.112;8.896;2023-04-06T01:34:47;14.63;;;12.70;;
5125;SDS011;63008;53.112;8.896;2023-04-06T01:36:48;13.67;;;12.20;;
5125;SDS011;63008;53.112;8.896;2023-04-06T01:38:49;14.80;;;13.30;;
5125;SDS011;63008;53.112;8.896;2023-04-06T01:40:53;13.60;;;12.10;;
5125;SDS011;63008;53.112;8.896;2023-04-06T01:42:54;14.50;;;13.10;;
5125;SDS011;63008;53.112;8.896;2023-04-06T01:44:55;14.30;;;12.80;;
5125;SDS011;63008;53.112;8.896;2023-04-06T01:46:56;14.47;;;12.97;;
5125;SDS011;63008;53.112;8.896;2023-04-06T01:48:57;14.80;;;13.30;;
5125;SDS011;63008;53.112;8.896;2023-04-06T01:51:01;14.90;;;13.40;;
5125;SDS011;63008;53.112;8.896;2023-04-06T01:53:02;19.37;;;12.80;;
5125;SDS011;63008;53.112;8.896;2023-04-06T01:55:03;16.80;;;14.50;;
5125;SDS011;63008;53.112;8.896;2023-04-06T01:57:04;14.60;;;12.93;;
5125;SDS011;63008;53.112;8.896;2023-04-06T01:59:05;15.67;;;14.17;;
5125;SDS011;63008;53.112;8.896;2023-04-06T02:01:06;15.17;;;13.63;;
5125;SDS011;63008;53.112;8.896;2023-04-06T02:03:07;15.37;;;12.93;;
5125;SDS011;63008;53.112;8.896;2023-04-06T02:05:08;14.87;;;13.40;;
5125;SDS011;63008;53.112;8.896;2023-04-06T02:07:09;15.33;;;13.83;;
5125;SDS011;63008;53.112;8.896;2023-04-06T02:09:10;15.83;;;13.40;;
5125;SDS011;63008;53.112;8.896;2023-04-06T02:11:11;16.33;;;13.37;;
5125;SDS011;63008;53.112;8.896;2023-04-06T02:13:12;15.40;;;13.83;;
5125;SDS011;63008;53.112;8.896;2023-04-06T02:15:13;15.03;;;13.37;;
5125;SDS011;63008;53.112;8.896;2023-04-06T02:17:14;17.00;;;13.47;;
5125;SDS011;63008;53.112;8.896;2023-04-06T02:19:15;15.57;;;13.87;;
5125;SDS011;63008;53.112;8.896;2023-04-06T02:21:16;15.67;;;13.00;;
5125;SDS011;63008;53.112;8.896;2023-04-06T02:23:20;14.40;;;13.00;;
5125;SDS011;63008;53.112;8.896;2023-04-06T02:25:21;14.60;;;12.17;;
5125;SDS011;63008;53.112;8.896;2023-04-06T02:27:22;15.00;;;13.40;;
5125;SDS011;63008;53.112;8.896;2023-04-06T02:29:23;15.67;;;13.10;;
5125;SDS011;63008;53.112;8.896;2023-04-06T02:31:24;14.13;;;12.73;;
5125;SDS011;63008;53.112;8.896;2023-04-06T02:33:25;17.63;;;13.40;;
5125;SDS011;63008;53.112;8.896;2023-04-06T02:35:27;16.37;;;13.37;;
5125;SDS011;63008;53.112;8.896;2023-04-06T02:37:29;18.10;;;14.57;;
5125;SDS011;63008;53.112;8.896;2023-04-06T02:39:29;15.67;;;12.63;;
5125;SDS011;63008;53.112;8.896;2023-04-06T02:41:30;23.37;;;14.70;;
5125;SDS011;63008;53.112;8.896;2023-04-06T02:43:32;16.20;;;14.17;;
5125;SDS011;63008;53.112;8.896;2023-04-06T02:45:33;14.87;;;13.30;;
5125;SDS011;63008;53.112;8.896;2023-04-06T02:47:34;16.20;;;14.10;;
5125;SDS011;63008;53.112;8.896;2023-04-06T02:49:35;14.97;;;13.40;;
5125;SDS011;63008;53.112;8.896;2023-04-06T02:51:36;15.13;;;13.50;;
5125;SDS011;63008;53.112;8.896;2023-04-06T02:53:37;16.37;;;13.73;;
5125;SDS011;63008;53.112;8.896;2023-04-06T02:55:38;15.93;;;14.33;;
5125;SDS011;63008;53.112;8.896;2023-04-06T02:57:39;17.63;;;14.67;;
5125;SDS011;63008;53.112;8.896;2023-04-06T02:59:40;15.60;;;14.00;;
5125;SDS011;63008;53.112;8.896;2023-04-06T03:01:41;15.07;;;13.10;;
5125;SDS011;63008;53.112;8.896;2023-04-06T03:03:42;16.57;;;14.80;;
5125;SDS011;63008;53.112;8.896;2023-04-06T03:05:43;15.47;;;13.83;;
5125;SDS011;63008;53.112;8.896;2023-04-06T03:07:44;16.07;;;13.70;;
5125;SDS011;63008;53.112;8.896;2023-04-06T03:09:45;14.70;;;13.30;;
5125;SDS011;63008;53.112;8.896;2023-04-06T03:11:46;14.63;;;13.13;;
5125;SDS011;63008;53.112;8.896;2023-04-06T03:13:47;15.40;;;13.70;;
5125;SDS011;63008;53.112;8.896;2023-04-06T03:15:48;16.97;;;13.27;;
5125;SDS011;63008;53.112;8.896;2023-04-06T03:17:49;14.83;;;13.30;;
5125;SDS011;63008;53.112;8.896;2023-04-06T03:19:50;14.30;;;12.90;;
5125;SDS011;63008;53.112;8.896;2023-04-06T03:21:51;15.63;;;13.90;;
5125;SDS011;63008;53.112;8.896;2023-04-06T03:23:52;15.73;;;14.23;;
5125;SDS011;63008;53.112;8.896;2023-04-06T03:25:53;15.40;;;13.73;;
5125;SDS011;63008;53.112;8.896;2023-04-06T03:27:54;15.40;;;13.80;;
5125;SDS011;63008;53.112;8.896;2023-04-06T03:29:55;14.20;;;12.70;;
5125;SDS011;63008;53.112;8.896;2023-04-06T03:31:56;15.37;;;12.93;;
5125;SDS011;63008;53.112;8.896;2023-04-06T03:33:57;14.17;;;12.77;;
5125;SDS011;63008;53.112;8.896;2023-04-06T03:35:58;14.80;;;13.30;;
5125;SDS011;63008;53.112;8.896;2023-04-06T03:37:59;18.20;;;13.30;;
5125;SDS011;63008;53.112;8.896;2023-04-06T03:40:00;14.97;;;12.80;;
5125;SDS011;63008;53.112;8.896;2023-04-06T03:42:01;15.60;;;13.37;;
5125;SDS011;63008;53.112;8.896;2023-04-06T03:44:02;14.23;;;12.83;;
5125;SDS011;63008;53.112;8.896;2023-04-06T03:46:03;15.17;;;13.57;;
5125;SDS011;63008;53.112;8.896;2023-04-06T03:48:04;15.03;;;13.43;;
5125;SDS011;63008;53.112;8.896;2023-04-06T03:50:05;16.33;;;13.30;;
5125;SDS011;63008;53.112;8.896;2023-04-06T03:52:07;15.80;;;13.20;;
5125;SDS011;63008;53.112;8.896;2023-04-06T03:54:08;14.50;;;13.00;;
5125;SDS011;63008;53.112;8.896;2023-04-06T03:56:08;15.20;;;13.60;;
5125;SDS011;63008;53.112;8.896;2023-04-06T03:58:09;15.00;;;13.50;;
5125;SDS011;63008;53.112;8.896;2023-04-06T04:00:11;15.40;;;13.77;;
5125;SDS011;63008;53.112;8.896;2023-04-06T04:02:13;15.20;;;13.70;;
5125;SDS011;63008;53.112;8.896;2023-04-06T04:04:13;16.20;;;13.40;;
5125;SDS011;63008;53.112;8.896;2023-04-06T04:06:14;15.23;;;13.63;;
5125;SDS011;63008;53.112;8.896;2023-04-06T04:08:15;16.73;;;13.87;;
5125;SDS011;63008;53.112;8.896;2023-04-06T04:10:16;14.30;;;12.87;;
5125;SDS011;63008;53.112;8.896;2023-04-06T04:12:18;15.50;;;12.90;;
5125;SDS011;63008;53.112;8.896;2023-04-06T04:14:18;13.57;;;12.27;;
5125;SDS011;63008;53.112;8.896;2023-04-06T04:16:20;14.90;;;13.50;;
5125;SDS011;63008;53.112;8.896;2023-04-06T04:18:21;16.20;;;13.40;;
5125;SDS011;63008;53.112;8.896;2023-04-06T04:20:22;14.67;;;13.23;;
5125;SDS011;63008;53.112;8.896;2023-04-06T04:22:23;16.17;;;14.50;;
5125;SDS011;63008;53.112;8.896;2023-04-06T04:24:24;16.20;;;13.33;;
5125;SDS011;63008;53.112;8.896;2023-04-06T04:26:25;16.07;;;14.30;;
5125;SDS011;63008;53.112;8.896;2023-04-06T04:28:26;15.20;;;13.20;;
5125;SDS011;63008;53.112;8.896;2023-04-06T04:30:27;15.47;;;13.80;;
5125;SDS011;63008;53.112;8.896;2023-04-06T04:32:28;14.93;;;13.00;;
5125;SDS011;63008;53.112;8.896;2023-04-06T04:34:29;14.37;;;12.97;;
5125;SDS011;63008;53.112;8.896;2023-04-06T04:36:30;14.50;;;13.10;;
5125;SDS011;63008;53.112;8.896;2023-04-06T04:38:31;16.00;;;12.97;;
5125;SDS011;63008;53.112;8.896;2023-04-06T04:40:32;14.77;;;12.97;;
5125;SDS011;63008;53.112;8.896;2023-04-06T04:42:33;13.80;;;12.27;;
5125;SDS011;63008;53.112;8.896;2023-04-06T04:44:34;13.93;;;12.53;;
5125;SDS011;63008;53.112;8.896;2023-04-06T04:46:35;14.53;;;12.97;;
5125;SDS011;63008;53.112;8.896;2023-04-06T04:48:36;15.43;;;12.90;;
5125;SDS011;63008;53.112;8.896;2023-04-06T04:50:37;16.17;;;13.40;;
5125;SDS011;63008;53.112;8.896;2023-04-06T04:52:43;19.50;;;12.70;;
5125;SDS011;63008;53.112;8.896;2023-04-06T04:54:44;13.07;;;11.87;;
5125;SDS011;63008;53.112;8.896;2023-04-06T04:56:47;15.50;;;11.73;;
5125;SDS011;63008;53.112;8.896;2023-04-06T04:58:48;13.47;;;12.07;;
5125;SDS011;63008;53.112;8.896;2023-04-06T05:00:49;13.47;;;12.10;;
5125;SDS011;63008;53.112;8.896;2023-04-06T05:02:50;13.67;;;12.40;;
5125;SDS011;63008;53.112;8.896;2023-04-06T05:04:51;13.13;;;11.93;;
5125;SDS011;63008;53.112;8.896;2023-04-06T05:07:05;15.80;;;12.80;;
5125;SDS011;63008;53.112;8.896;2023-04-06T05:09:06;13.30;;;12.03;;
5125;SDS011;63008;53.112;8.896;2023-04-06T05:11:08;15.87;;;12.47;;
5125;SDS011;63008;53.112;8.896;2023-04-06T05:13:09;13.23;;;11.80;;
5125;SDS011;63008;53.112;8.896;2023-04-06T05:15:10;13.63;;;11.90;;
5125;SDS011;63008;53.112;8.896;2023-04-06T05:17:11;13.57;;;12.27;;
5125;SDS011;63008;53.112;8.896;2023-04-06T05:19:12;12.37;;;11.17;;
5125;SDS011;63008;53.112;8.896;2023-04-06T05:21:13;13.37;;;12.13;;
5125;SDS011;63008;53.112;8.896;2023-04-06T05:23:14;14.93;;;11.70;;
5125;SDS011;63008;53.112;8.896;2023-04-06T05:25:16;15.00;;;12.10;;
5125;SDS011;63008;53.112;8.896;2023-04-06T05:27:17;12.23;;;11.13;;
5125;SDS011;63008;53.112;8.896;2023-04-06T05:29:18;14.10;;;12.20;;
5125;SDS011;63008;53.112;8.896;2023-04-06T05:31:19;14.13;;;12.67;;
5125;SDS011;63008;53.112;8.896;2023-04-06T05:33:20;12.83;;;11.63;;
5125;SDS011;63008;53.112;8.896;2023-04-06T05:35:21;13.10;;;11.70;;
5125;SDS011;63008;53.112;8.896;2023-04-06T05:37:22;13.03;;;11.60;;
5125;SDS011;63008;53.112;8.896;2023-04-06T05:39:23;13.57;;;12.23;;
5125;SDS011;63008;53.112;8.896;2023-04-06T05:41:24;12.83;;;11.57;;
5125;SDS011;63008;53.112;8.896;2023-04-06T05:43:25;21.90;;;12.30;;
5125;SDS011;63008;53.112;8.896;2023-04-06T05:45:26;16.13;;;12.90;;
5125;SDS011;63008;53.112;8.896;2023-04-06T05:47:27;14.90;;;11.30;;
5125;SDS011;63008;53.112;8.896;2023-04-06T05:49:28;12.57;;;11.27;;
5125;SDS011;63008;53.112;8.896;2023-04-06T05:51:29;13.80;;;11.77;;
5125;SDS011;63008;53.112;8.896;2023-04-06T05:53:30;12.57;;;11.40;;
5125;SDS011;63008;53.112;8.896;2023-04-06T05:55:31;13.70;;;12.30;;
5125;SDS011;63008;53.112;8.896;2023-04-06T05:57:31;11.97;;;10.90;;
5125;SDS011;63008;53.112;8.896;2023-04-06T05:59:32;11.43;;;10.17;;
5125;SDS011;63008;53.112;8.896;2023-04-06T06:01:33;12.27;;;11.00;;
5125;SDS011;63008;53.112;8.896;2023-04-06T06:03:35;11.50;;;10.37;;
5125;SDS011;63008;53.112;8.896;2023-04-06T06:05:36;12.50;;;11.20;;
5125;SDS011;63008;53.112;8.896;2023-04-06T06:07:37;11.87;;;10.63;;
5125;SDS011;63008;53.112;8.896;2023-04-06T06:09:38;11.70;;;10.63;;
5125;SDS011;63008;53.112;8.896;2023-04-06T06:11:39;13.13;;;11.67;;
5125;SDS011;63008;53.112;8.896;2023-04-06T06:13:41;13.63;;;12.23;;
5125;SDS011;63008;53.112;8.896;2023-04-06T06:15:42;12.67;;;11.37;;
5125;SDS011;63008;53.112;8.896;2023-04-06T06:17:43;12.13;;;10.20;;
5125;SDS011;63008;53.112;8.896;2023-04-06T06:19:44;11.70;;;10.60;;
5125;SDS011;63008;53.112;8.896;2023-04-06T06:21:45;11.10;;;9.97;;
5125;SDS011;63008;53.112;8.896;2023-04-06T06:23:45;12.07;;;10.83;;
5125;SDS011;63008;53.112;8.896;2023-04-06T06:25:48;12.53;;;11.00;;
5125;SDS011;63008;53.112;8.896;2023-04-06T06:27:49;12.07;;;10.77;;
5125;SDS011;63008;53.112;8.896;2023-04-06T06:29:50;11.83;;;10.73;;
5125;SDS011;63008;53.112;8.896;2023-04-06T06:31:51;11.53;;;10.33;;
5125;SDS011;63008;53.112;8.896;2023-04-06T06:33:52;10.20;;;9.20;;
5125;SDS011;63008;53.112;8.896;2023-04-06T06:35:53;9.83;;;8.83;;
5125;SDS011;63008;53.112;8.896;2023-04-06T06:37:54;11.13;;;9.80;;
5125;SDS011;63008;53.112;8.896;2023-04-06T06:39:55;11.40;;;10.17;;
5125;SDS011;63008;53.112;8.896;2023-04-06T06:41:56;11.50;;;10.40;;
5125;SDS011;63008;53.112;8.896;2023-04-06T06:43:57;9.40;;;8.50;;
5125;SDS011;63008;53.112;8.896;2023-04-06T06:45:58;9.80;;;8.90;;
5125;SDS011;63008;53.112;8.896;2023-04-06T06:47:59;13.90;;;9.20;;
5125;SDS011;63008;53.112;8.896;2023-04-06T06:50:00;19.33;;;10.20;;
5125;SDS011;63008;53.112;8.896;2023-04-06T06:52:02;9.77;;;8.87;;
5125;SDS011;63008;53.112;8.896;2023-04-06T06:54:03;13.60;;;9.37;;
5125;SDS011;63008;53.112;8.896;2023-04-06T06:56:04;9.33;;;8.47;;
5125;SDS011;63008;53.112;8.896;2023-04-06T06:58:05;13.67;;;8.70;;
5125;SDS011;63008;53.112;8.896;2023-04-06T07:00:06;8.73;;;7.83;;
5125;SDS011;63008;53.112;8.896;2023-04-06T07:02:08;9.10;;;8.20;;
5125;SDS011;63008;53.112;8.896;2023-04-06T07:04:09;9.70;;;7.90;;
5125;SDS011;63008;53.112;8.896;2023-04-06T07:06:10;9.13;;;8.07;;
5125;SDS011;63008;53.112;8.896;2023-04-06T07:08:11;8.70;;;7.80;;
5125;SDS011;63008;53.112;8.896;2023-04-06T07:10:12;9.00;;;7.90;;
5125;SDS011;63008;53.112;8.896;2023-04-06T07:12:13;10.00;;;7.53;;
5125;SDS011;63008;53.112;8.896;2023-04-06T07:14:15;7.80;;;6.53;;
5125;SDS011;63008;53.112;8.896;2023-04-06T07:16:16;10.77;;;6.67;;
5125;SDS011;63008;53.112;8.896;2023-04-06T07:18:18;11.10;;;7.00;;
5125;SDS011;63008;53.112;8.896;2023-04-06T07:20:19;8.57;;;7.60;;
5125;SDS011;63008;53.112;8.896;2023-04-06T07:22:20;7.00;;;6.37;;
5125;SDS011;63008;53.112;8.896;2023-04-06T07:24:21;8.90;;;6.93;;
5125;SDS011;63008;53.112;8.896;2023-04-06T07:26:22;8.13;;;7.13;;
5125;SDS011;63008;53.112;8.896;2023-04-06T07:28:23;11.03;;;6.90;;
5125;SDS011;63008;53.112;8.896;2023-04-06T07:30:24;7.90;;;6.70;;
5125;SDS011;63008;53.112;8.896;2023-04-06T07:32:29;8.80;;;6.60;;
5125;SDS011;63008;53.112;8.896;2023-04-06T07:34:31;12.67;;;7.73;;
5125;SDS011;63008;53.112;8.896;2023-04-06T07:36:32;6.70;;;5.73;;
5125;SDS011;63008;53.112;8.896;2023-04-06T07:38:32;8.77;;;6.50;;
5125;SDS011;63008;53.112;8.896;2023-04-06T07:40:33;7.47;;;5.40;;
5125;SDS011;63008;53.112;8.896;2023-04-06T07:42:34;14.63;;;5.83;;
5125;SDS011;63008;53.112;8.896;2023-04-06T07:44:35;7.20;;;5.37;;
5125;SDS011;63008;53.112;8.896;2023-04-06T07:46:36;6.13;;;5.53;;
5125;SDS011;63008;53.112;8.896;2023-04-06T07:48:37;6.50;;;5.33;;
5125;SDS011;63008;53.112;8.896;2023-04-06T07:50:38;7.80;;;5.90;;
5125;SDS011;63008;53.112;8.896;2023-04-06T07:52:39;7.33;;;5.73;;
5125;SDS011;63008;53.112;8.896;2023-04-06T07:54:40;7.37;;;5.73;;
5125;SDS011;63008;53.112;8.896;2023-04-06T07:56:42;7.13;;;5.37;;
5125;SDS011;63008;53.112;8.896;2023-04-06T07:58:43;7.40;;;6.47;;
5125;SDS011;63008;53.112;8.896;2023-04-06T08:00:44;6.50;;;5.90;;
5125;SDS011;63008;53.112;8.896;2023-04-06T08:02:45;7.43;;;5.33;;
5125;SDS011;63008;53.112;8.896;2023-04-06T08:04:47;5.33;;;4.83;;
5125;SDS011;63008;53.112;8.896;2023-04-06T08:06:48;5.53;;;4.93;;
5125;SDS011;63008;53.112;8.896;2023-04-06T08:08:49;7.33;;;4.90;;
5125;SDS011;63008;53.112;8.896;2023-04-06T08:10:50;5.83;;;5.30;;
5125;SDS011;63008;53.112;8.896;2023-04-06T08:12:51;6.43;;;5.20;;
5125;SDS011;63008;53.112;8.896;2023-04-06T08:14:52;6.27;;;5.37;;
5125;SDS011;63008;53.112;8.896;2023-04-06T08:16:53;7.23;;;6.03;;
5125;SDS011;63008;53.112;8.896;2023-04-06T08:18:55;5.80;;;5.20;;
5125;SDS011;63008;53.112;8.896;2023-04-06T08:20:56;5.70;;;5.20;;
5125;SDS011;63008;53.112;8.896;2023-04-06T08:22:57;13.27;;;5.50;;
5125;SDS011;63008;53.112;8.896;2023-04-06T08:24:58;7.37;;;5.37;;
5125;SDS011;63008;53.112;8.896;2023-04-06T08:26:59;7.27;;;5.90;;
5125;SDS011;63008;53.112;8.896;2023-04-06T08:29:00;6.23;;;5.20;;
5125;SDS011;63008;53.112;8.896;2023-04-06T08:31:04;11.60;;;6.40;;
5125;SDS011;63008;53.112;8.896;2023-04-06T08:33:06;4.97;;;4.47;;
5125;SDS011;63008;53.112;8.896;2023-04-06T08:35:07;5.63;;;4.83;;
5125;SDS011;63008;53.112;8.896;2023-04-06T08:39:12;14.40;;;5.70;;
5125;SDS011;63008;53.112;8.896;2023-04-06T08:41:13;7.30;;;5.93;;
5125;SDS011;63008;53.112;8.896;2023-04-06T08:43:14;6.20;;;5.47;;
5125;SDS011;63008;53.112;8.896;2023-04-06T08:45:17;7.83;;;5.80;;
5125;SDS011;63008;53.112;8.896;2023-04-06T08:47:21;8.43;;;6.20;;
5125;SDS011;63008;53.112;8.896;2023-04-06T08:49:22;6.60;;;5.20;;
5125;SDS011;63008;53.112;8.896;2023-04-06T08:51:23;6.47;;;5.57;;
5125;SDS011;63008;53.112;8.896;2023-04-06T08:53:28;7.87;;;5.90;;
5125;SDS011;63008;53.112;8.896;2023-04-06T08:55:29;5.70;;;5.20;;
5125;SDS011;63008;53.112;8.896;2023-04-06T08:57:30;6.53;;;5.90;;
5125;SDS011;63008;53.112;8.896;2023-04-06T08:59:32;6.10;;;5.37;;
5125;SDS011;63008;53.112;8.896;2023-04-06T09:01:33;9.73;;;5.23;;
5125;SDS011;63008;53.112;8.896;2023-04-06T09:03:39;6.47;;;5.80;;
5125;SDS011;63008;53.112;8.896;2023-04-06T09:05:40;5.73;;;5.00;;
5125;SDS011;63008;53.112;8.896;2023-04-06T09:07:42;7.47;;;5.10;;
5125;SDS011;63008;53.112;8.896;2023-04-06T09:09:43;6.33;;;5.17;;
5125;SDS011;63008;53.112;8.896;2023-04-06T09:11:49;6.27;;;5.67;;
5125;SDS011;63008;53.112;8.896;2023-04-06T09:13:52;9.37;;;6.30;;
5125;SDS011;63008;53.112;8.896;2023-04-06T09:15:58;5.77;;;5.23;;
5125;SDS011;63008;53.112;8.896;2023-04-06T09:18:00;5.67;;;5.20;;
5125;SDS011;63008;53.112;8.896;2023-04-06T09:20:02;5.60;;;5.10;;
5125;SDS011;63008;53.112;8.896;2023-04-06T09:22:04;6.17;;;5.57;;
5125;SDS011;63008;53.112;8.896;2023-04-06T09:24:07;6.70;;;5.47;;
5125;SDS011;63008;53.112;8.896;2023-04-06T09:26:10;5.93;;;5.33;;
5125;SDS011;63008;53.112;8.896;2023-04-06T09:28:12;7.60;;;5.90;;
5125;SDS011;63008;53.112;8.896;2023-04-06T09:30:13;5.93;;;5.43;;
5125;SDS011;63008;53.112;8.896;2023-04-06T09:32:16;7.07;;;5.80;;
5125;SDS011;63008;53.112;8.896;2023-04-06T09:34:20;8.00;;;5.93;;
5125;SDS011;63008;53.112;8.896;2023-04-06T09:36:32;7.13;;;6.20;;
5125;SDS011;63008;53.112;8.896;2023-04-06T09:38:36;11.07;;;6.30;;
5125;SDS011;63008;53.112;8.896;2023-04-06T09:40:47;7.23;;;6.00;;
5125;SDS011;63008;53.112;8.896;2023-04-06T09:42:51;6.00;;;5.50;;
5125;SDS011;63008;53.112;8.896;2023-04-06T09:44:54;6.30;;;5.70;;
5125;SDS011;63008;53.112;8.896;2023-04-06T09:46:55;6.43;;;5.70;;
5125;SDS011;63008;53.112;8.896;2023-04-06T09:48:56;7.10;;;6.40;;
5125;SDS011;63008;53.112;8.896;2023-04-06T09:50:59;7.47;;;6.40;;
5125;SDS011;63008;53.112;8.896;2023-04-06T09:53:03;7.70;;;6.70;;
5125;SDS011;63008;53.112;8.896;2023-04-06T09:55:05;6.80;;;6.13;;
5125;SDS011;63008;53.112;8.896;2023-04-06T09:57:15;10.63;;;6.23;;
5125;SDS011;63008;53.112;8.896;2023-04-06T09:59:36;6.33;;;5.73;;
5125;SDS011;63008;53.112;8.896;2023-04-06T10:01:49;7.23;;;6.53;;
5125;SDS011;63008;53.112;8.896;2023-04-06T10:03:53;7.20;;;6.50;;
5125;SDS011;63008;53.112;8.896;2023-04-06T10:06:06;6.93;;;6.33;;
5125;SDS011;63008;53.112;8.896;2023-04-06T10:08:11;7.23;;;6.53;;
5125;SDS011;63008;53.112;8.896;2023-04-06T10:10:14;11.13;;;7.23;;
5125;SDS011;63008;53.112;8.896;2023-04-06T10:12:15;7.10;;;6.10;;
5125;SDS011;63008;53.112;8.896;2023-04-06T10:14:17;7.93;;;7.13;;
5125;SDS011;63008;53.112;8.896;2023-04-06T10:16:18;7.97;;;6.40;;
5125;SDS011;63008;53.112;8.896;2023-04-06T10:18:19;7.93;;;7.13;;
5125;SDS011;63008;53.112;8.896;2023-04-06T10:24:59;9.63;;;7.33;;
5125;SDS011;63008;53.112;8.896;2023-04-06T10:27:01;7.70;;;7.00;;
5125;SDS011;63008;53.112;8.896;2023-04-06T10:29:03;10.23;;;7.07;;
5125;SDS011;63008;53.112;8.896;2023-04-06T10:31:05;11.60;;;7.17;;
5125;SDS011;63008;53.112;8.896;2023-04-06T10:33:13;8.30;;;6.93;;
5125;SDS011;63008;53.112;8.896;2023-04-06T10:35:18;13.63;;;8.07;;
5125;SDS011;63008;53.112;8.896;2023-04-06T10:37:19;9.87;;;8.57;;
5125;SDS011;63008;53.112;8.896;2023-04-06T10:39:24;8.60;;;7.70;;
5125;SDS011;63008;53.112;8.896;2023-04-06T10:41:37;11.00;;;7.93;;
5125;SDS011;63008;53.112;8.896;2023-04-06T10:43:42;9.33;;;8.40;;
5125;SDS011;63008;53.112;8.896;2023-04-06T10:45:43;9.70;;;8.80;;
5125;SDS011;63008;53.112;8.896;2023-04-06T10:47:44;11.60;;;8.50;;
5125;SDS011;63008;53.112;8.896;2023-04-06T10:49:45;9.80;;;8.10;;
5125;SDS011;63008;53.112;8.896;2023-04-06T10:51:50;9.30;;;7.97;;
5125;SDS011;63008;53.112;8.896;2023-04-06T10:53:54;10.53;;;7.90;;
5125;SDS011;63008;53.112;8.896;2023-04-06T10:55:56;9.37;;;8.23;;
5125;SDS011;63008;53.112;8.896;2023-04-06T10:57:57;9.23;;;8.30;;
5125;SDS011;63008;53.112;8.896;2023-04-06T10:59:58;9.17;;;8.20;;
5125;SDS011;63008;53.112;8.896;2023-04-06T11:01:59;9.27;;;8.37;;
5125;SDS011;63008;53.112;8.896;2023-04-06T11:04:00;9.90;;;8.70;;
5125;SDS011;63008;53.112;8.896;2023-04-06T11:06:01;9.80;;;8.57;;
5125;SDS011;63008;53.112;8.896;2023-04-06T11:08:02;8.90;;;8.00;;
5125;SDS011;63008;53.112;8.896;2023-04-06T11:10:03;12.00;;;8.30;;
5125;SDS011;63008;53.112;8.896;2023-04-06T11:12:05;14.13;;;8.10;;
5125;SDS011;63008;53.112;8.896;2023-04-06T11:14:06;11.10;;;8.80;;
5125;SDS011;63008;53.112;8.896;2023-04-06T11:16:26;11.17;;;8.47;;
5125;SDS011;63008;53.112;8.896;2023-04-06T11:18:31;9.10;;;8.20;;
5125;SDS011;63008;53.112;8.896;2023-04-06T11:20:32;9.00;;;8.00;;
5125;SDS011;63008;53.112;8.896;2023-04-06T11:22:33;9.43;;;8.43;;
5125;SDS011;63008;53.112;8.896;2023-04-06T11:24:34;9.57;;;8.47;;
5125;SDS011;63008;53.112;8.896;2023-04-06T11:26:39;8.60;;;7.70;;
5125;SDS011;63008;53.112;8.896;2023-04-06T11:29:05;10.93;;;8.83;;
5125;SDS011;63008;53.112;8.896;2023-04-06T11:31:06;8.43;;;7.57;;
5125;SDS011;63008;53.112;8.896;2023-04-06T11:33:07;10.37;;;8.10;;
5125;SDS011;63008;53.112;8.896;2023-04-06T11:35:23;13.37;;;7.80;;
5125;SDS011;63008;53.112;8.896;2023-04-06T11:37:25;11.60;;;8.47;;
5125;SDS011;63008;53.112;8.896;2023-04-06T11:39:27;9.30;;;8.40;;
5125;SDS011;63008;53.112;8.896;2023-04-06T11:41:29;11.13;;;8.50;;
5125;SDS011;63008;53.112;8.896;2023-04-06T11:43:31;12.03;;;9.63;;
5125;SDS011;63008;53.112;8.896;2023-04-06T11:45:41;9.73;;;8.40;;
5125;SDS011;63008;53.112;8.896;2023-04-06T11:47:43;9.33;;;8.43;;
5125;SDS011;63008;53.112;8.896;2023-04-06T11:49:44;11.17;;;9.00;;
5125;SDS011;63008;53.112;8.896;2023-04-06T11:51:45;13.13;;;8.20;;
5125;SDS011;63008;53.112;8.896;2023-04-06T11:53:46;8.77;;;7.97;;
5125;SDS011;63008;53.112;8.896;2023-04-06T11:55:47;12.20;;;8.53;;
5125;SDS011;63008;53.112;8.896;2023-04-06T11:57:48;10.27;;;8.43;;
5125;SDS011;63008;53.112;8.896;2023-04-06T11:59:50;9.17;;;8.30;;
5125;SDS011;63008;53.112;8.896;2023-04-06T12:01:51;9.13;;;8.07;;
5125;SDS011;63008;53.112;8.896;2023-04-06T12:03:53;9.97;;;8.97;;
5125;SDS011;63008;53.112;8.896;2023-04-06T12:05:54;10.77;;;8.37;;
5125;SDS011;63008;53.112;8.896;2023-04-06T12:07:55;9.07;;;8.27;;
5125;SDS011;63008;53.112;8.896;2023-04-06T12:09:58;9.87;;;8.20;;
5125;SDS011;63008;53.112;8.896;2023-04-06T12:11:59;8.23;;;7.40;;
5125;SDS011;63008;53.112;8.896;2023-04-06T12:14:01;10.70;;;8.40;;
5125;SDS011;63008;53.112;8.896;2023-04-06T12:16:05;9.50;;;8.10;;
5125;SDS011;63008;53.112;8.896;2023-04-06T12:18:06;9.83;;;8.23;;
5125;SDS011;63008;53.112;8.896;2023-04-06T12:20:07;8.40;;;7.67;;